Time;durP1;ratioP1;P1;durP2;ratioP2;P2;SDS_P1;SDS_P2;PMS_P1;PMS_P2;Temp;Humidity;BMP_temperature;BMP_pressure;BME280_temperature;BME280_humidity;BME280_pressure;Samples;Min_cycle;Max_cycle;Signal;HPM_P1;HPM_P2
2023/01/07 00:00:14;;;;;;;2.60;1.70;;;8.90;99.90;;;;;;6269977;22;20199;-86
2023/01/07 00:02:40;;;;;;;5.67;1.60;;;8.90;99.90;;;;;;6286357;22;20162;-86
2023/01/07 00:05:05;;;;;;;3.03;1.37;;;8.80;99.90;;;;;;6282261;22;20152;-84
2023/01/07 00:07:31;;;;;;;2.90;1.43;;;8.90;99.90;;;;;;6283185;22;20156;-86
2023/01/07 00:09:56;;;;;;;3.27;1.13;;;8.90;99.90;;;;;;6254308;22;20148;-86
2023/01/07 00:12:22;;;;;;;2.10;1.57;;;8.90;99.90;;;;;;6282757;22;20144;-86
2023/01/07 00:14:47;;;;;;;1.50;1.30;;;8.90;99.90;;;;;;6254003;22;20229;-85
2023/01/07 00:17:13;;;;;;;2.67;1.33;;;9.00;99.90;;;;;;6255164;22;20418;-85
2023/01/07 00:19:38;;;;;;;1.97;0.90;;;8.90;99.90;;;;;;6283526;22;20239;-85
2023/01/07 00:22:04;;;;;;;2.10;1.50;;;8.80;99.90;;;;;;6253953;22;20219;-86
2023/01/07 00:24:29;;;;;;;2.57;1.37;;;8.80;99.90;;;;;;6285822;22;20171;-88
2023/01/07 00:26:55;;;;;;;2.83;1.50;;;8.70;99.90;;;;;;6260208;22;20185;-88
2023/01/07 00:29:20;;;;;;;2.40;1.37;;;8.60;99.90;;;;;;6254912;22;20151;-88
2023/01/07 00:31:46;;;;;;;2.03;1.60;;;8.60;99.90;;;;;;6262928;22;20167;-85
2023/01/07 00:34:11;;;;;;;1.23;1.00;;;8.70;99.90;;;;;;6285194;22;20152;-87
2023/01/07 00:36:41;;;;;;;0.70;0.70;;;8.70;99.90;;;;;;6256504;22;20152;-87
2023/01/07 00:39:18;;;;;;;0.73;0.50;;;8.80;99.90;;;;;;6255955;22;20225;-87
2023/01/07 00:44:29;;;;;;;0.95;0.75;;;9.10;99.90;;;;;;6284030;22;20243;-86
2023/01/07 00:46:54;;;;;;;0.70;0.70;;;9.20;99.90;;;;;;6273681;22;20186;-85
2023/01/07 00:49:20;;;;;;;1.67;0.83;;;9.30;99.90;;;;;;6262565;22;20156;-86
2023/01/07 00:51:45;;;;;;;1.10;0.80;;;9.40;99.90;;;;;;6261269;22;20266;-85
2023/01/07 00:54:11;;;;;;;0.90;0.60;;;9.50;99.90;;;;;;6298004;22;20152;-86
2023/01/07 00:56:36;;;;;;;0.60;0.60;;;9.50;99.90;;;;;;6274692;22;20160;-87
2023/01/07 00:59:02;;;;;;;0.60;0.60;;;9.50;99.90;;;;;;6262983;22;20152;-87
2023/01/07 01:01:27;;;;;;;0.80;0.60;;;9.50;99.90;;;;;;6260874;22;20201;-87
2023/01/07 01:03:53;;;;;;;0.50;0.50;;;9.60;99.90;;;;;;6257774;22;20174;-86
2023/01/07 01:06:18;;;;;;;3.00;1.07;;;9.60;99.90;;;;;;6231053;22;20164;-87
2023/01/07 01:08:46;;;;;;;0.90;0.50;;;9.60;99.90;;;;;;6256314;22;20162;-86
2023/01/07 01:11:13;;;;;;;0.70;0.57;;;9.60;99.90;;;;;;6255463;22;20175;-87
2023/01/07 01:13:40;;;;;;;1.98;0.60;;;9.60;99.90;;;;;;6254141;22;20181;-87
2023/01/07 01:16:11;;;;;;;0.65;0.50;;;9.60;99.90;;;;;;6254597;22;20156;-88
2023/01/07 01:18:37;;;;;;;1.08;0.68;;;9.50;99.90;;;;;;6255033;22;20152;-87
2023/01/07 01:21:05;;;;;;;0.70;0.40;;;9.50;99.90;;;;;;6264604;22;20180;-86
2023/01/07 01:23:30;;;;;;;0.75;0.63;;;9.60;99.90;;;;;;6255122;22;20158;-86
2023/01/07 01:26:08;;;;;;;1.33;0.70;;;9.60;99.90;;;;;;6253371;22;20171;-87
2023/01/07 01:28:34;;;;;;;1.10;0.70;;;9.60;99.90;;;;;;6253196;22;20169;-87
2023/01/07 01:31:00;;;;;;;1.00;0.90;;;9.60;99.90;;;;;;6253441;22;20190;-85
2023/01/07 01:33:26;;;;;;;0.90;0.70;;;9.50;99.90;;;;;;6252968;22;20386;-87
2023/01/07 01:35:51;;;;;;;1.40;1.10;;;9.50;99.90;;;;;;6253128;22;20382;-87
2023/01/07 01:38:16;;;;;;;1.10;1.00;;;9.60;99.90;;;;;;6252625;22;20152;-90
2023/01/07 01:40:42;;;;;;;1.67;1.20;;;9.70;99.90;;;;;;6253472;22;20184;-86
2023/01/07 01:43:44;;;;;;;1.73;0.97;;;9.60;99.90;;;;;;6253227;22;20168;-87
2023/01/07 01:46:33;;;;;;;0.80;0.80;;;9.60;99.90;;;;;;6109066;23;20135;-87
2023/01/07 01:49:09;;;;;;;0.80;0.68;;;9.40;99.90;;;;;;6275757;22;20156;-86
2023/01/07 01:51:39;;;;;;;1.02;0.70;;;9.40;99.90;;;;;;6253415;22;20187;-87
2023/01/07 01:54:09;;;;;;;1.60;0.65;;;9.40;99.90;;;;;;6253008;22;20243;-87
2023/01/07 01:56:41;;;;;;;0.88;0.65;;;9.40;99.90;;;;;;6280480;22;20170;-87
2023/01/07 01:59:10;;;;;;;1.08;0.98;;;9.50;99.90;;;;;;6252694;22;20167;-87
2023/01/07 02:01:36;;;;;;;1.42;0.75;;;9.50;99.90;;;;;;6258536;22;20283;-87
2023/01/07 02:04:11;;;;;;;1.33;0.80;;;9.50;99.90;;;;;;6279282;22;20212;-86
2023/01/07 02:06:42;;;;;;;1.08;0.75;;;9.50;99.90;;;;;;6252698;22;20135;-86
2023/01/07 02:09:10;;;;;;;3.65;1.00;;;9.40;99.90;;;;;;6279272;22;20206;-87
2023/01/07 02:11:45;;;;;;;2.05;0.80;;;9.40;99.90;;;;;;6279245;22;20235;-85
2023/01/07 02:14:40;;;;;;;1.55;0.95;;;9.30;99.90;;;;;;6252543;22;20136;-85
2023/01/07 02:17:19;;;;;;;1.30;0.90;;;9.40;99.90;;;;;;6224783;22;20151;-87
2023/01/07 02:20:02;;;;;;;0.75;0.68;;;9.40;99.90;;;;;;6265695;22;20766;-85
2023/01/07 02:23:05;;;;;;;0.73;0.73;;;9.40;99.90;;;;;;6280784;22;20136;-88
2023/01/07 02:25:49;;;;;;;1.42;0.90;;;9.30;99.90;;;;;;6251739;22;20239;-88
2023/01/07 02:28:36;;;;;;;0.65;0.50;;;9.30;99.90;;;;;;6252568;22;20136;-87
2023/01/07 02:31:18;;;;;;;0.70;0.70;;;9.30;99.90;;;;;;6251509;22;20171;-86
2023/01/07 02:33:57;;;;;;;0.70;0.50;;;9.30;99.90;;;;;;6281594;22;20213;-85
2023/01/07 02:36:54;;;;;;;1.48;0.95;;;9.20;99.90;;;;;;6258550;22;20230;-86
2023/01/07 02:39:37;;;;;;;2.20;0.60;;;9.30;99.90;;;;;;6250082;22;20247;-84
2023/01/07 02:42:44;;;;;;;0.77;0.68;;;9.30;99.90;;;;;;6249775;22;20176;-86
2023/01/07 02:45:19;;;;;;;1.40;0.60;;;9.40;99.90;;;;;;6278030;22;20124;-88
2023/01/07 02:48:00;;;;;;;1.85;1.08;;;9.40;99.90;;;;;;6250855;22;20435;-85
2023/01/07 02:50:25;;;;;;;2.72;0.73;;;9.30;99.90;;;;;;6250332;22;20225;-85
2023/01/07 02:52:51;;;;;;;1.13;0.73;;;9.20;99.90;;;;;;6250742;22;20254;-86
2023/01/07 02:55:28;;;;;;;1.13;0.67;;;9.20;99.90;;;;;;6250817;22;20543;-83
2023/01/07 02:58:20;;;;;;;1.48;0.90;;;9.20;99.90;;;;;;6277856;22;20135;-86
2023/01/07 03:01:14;;;;;;;2.13;1.05;;;9.10;99.90;;;;;;6256699;22;20200;-85
2023/01/07 03:03:51;;;;;;;1.92;1.13;;;9.00;99.90;;;;;;6254025;22;20144;-87
2023/01/07 03:06:34;;;;;;;0.90;0.70;;;9.10;99.90;;;;;;6251739;22;20186;-87
2023/01/07 03:09:02;;;;;;;2.20;0.98;;;9.10;99.90;;;;;;6278739;22;20147;-87
2023/01/07 03:11:33;;;;;;;1.38;1.00;;;9.00;99.90;;;;;;6251430;22;20175;-87
2023/01/07 03:14:02;;;;;;;1.42;1.20;;;9.00;99.90;;;;;;6276990;22;20136;-86
2023/01/07 03:16:38;;;;;;;0.93;0.70;;;9.00;99.90;;;;;;6277200;22;20155;-86
2023/01/07 03:19:27;;;;;;;1.35;0.68;;;9.00;99.90;;;;;;6252219;22;20255;-87
2023/01/07 03:21:54;;;;;;;0.70;0.70;;;8.90;99.90;;;;;;6251322;22;20199;-87
2023/01/07 03:24:21;;;;;;;0.60;0.60;;;8.90;99.90;;;;;;6279999;22;20464;-87
2023/01/07 03:26:49;;;;;;;2.13;0.80;;;9.00;99.90;;;;;;6251914;22;20159;-88
2023/01/07 03:29:16;;;;;;;1.30;0.98;;;9.00;99.90;;;;;;6280102;22;20147;-87
2023/01/07 03:31:50;;;;;;;1.30;0.82;;;9.00;99.90;;;;;;6261677;22;20164;-86
2023/01/07 03:34:21;;;;;;;2.95;0.93;;;9.00;99.90;;;;;;6301202;22;20117;-88
2023/01/07 03:36:52;;;;;;;2.78;0.90;;;9.00;99.90;;;;;;6296335;22;20137;-86
2023/01/07 03:39:21;;;;;;;3.72;0.85;;;9.00;99.90;;;;;;6258181;22;20202;-87
2023/01/07 03:44:33;;;;;;;3.08;1.13;;;9.00;99.90;;;;;;6282325;22;20142;-88
2023/01/07 03:46:59;;;;;;;2.50;1.10;;;9.00;99.90;;;;;;6254847;22;20223;-86
2023/01/07 03:49:24;;;;;;;3.93;0.90;;;8.90;99.90;;;;;;6269607;22;20175;-84
2023/01/07 03:51:51;;;;;;;1.17;0.50;;;8.80;99.90;;;;;;6267866;22;20178;-87
2023/01/07 03:54:17;;;;;;;1.48;1.10;;;8.80;99.90;;;;;;6293500;22;20144;-85
2023/01/07 03:56:42;;;;;;;1.37;1.07;;;8.90;99.90;;;;;;6255072;22;20167;-87
2023/01/07 03:59:08;;;;;;;4.87;1.00;;;8.90;99.90;;;;;;6253248;22;20162;-86
2023/01/07 04:01:33;;;;;;;1.30;0.90;;;9.00;99.90;;;;;;6280706;22;20272;-86
2023/01/07 04:03:59;;;;;;;2.00;1.00;;;9.00;99.90;;;;;;6254459;22;20151;-85
2023/01/07 04:06:24;;;;;;;1.10;0.83;;;9.10;99.90;;;;;;6254493;22;20675;-86
2023/01/07 04:08:50;;;;;;;1.53;1.27;;;9.00;99.90;;;;;;6253802;22;20198;-85
2023/01/07 04:11:15;;;;;;;1.40;1.00;;;9.00;99.90;;;;;;6280972;22;20190;-87
2023/01/07 04:13:41;;;;;;;1.33;0.73;;;9.00;99.90;;;;;;6281936;22;20223;-86
2023/01/07 04:16:06;;;;;;;1.27;1.00;;;8.90;99.90;;;;;;6287265;22;20154;-84
2023/01/07 04:18:32;;;;;;;1.40;1.00;;;8.90;99.90;;;;;;6283745;22;20489;-86
2023/01/07 04:20:58;;;;;;;2.43;1.70;;;8.90;99.90;;;;;;6281863;22;20203;-87
2023/01/07 04:23:23;;;;;;;1.93;1.73;;;9.00;99.90;;;;;;6280036;22;20441;-87
2023/01/07 04:25:49;;;;;;;6.80;1.90;;;9.00;99.90;;;;;;6252474;22;20179;-85
2023/01/07 04:28:14;;;;;;;2.20;1.30;;;9.00;99.90;;;;;;6250266;22;20593;-87
2023/01/07 04:30:40;;;;;;;2.00;1.50;;;9.10;99.90;;;;;;6250273;22;20524;-86
2023/01/07 04:33:06;;;;;;;1.80;1.30;;;9.10;99.90;;;;;;6278333;22;20830;-84
2023/01/07 04:35:32;;;;;;;2.17;1.23;;;9.10;99.90;;;;;;6276657;22;20148;-87
2023/01/07 04:37:58;;;;;;;2.13;1.60;;;9.10;99.90;;;;;;6277406;22;20378;-87
2023/01/07 04:40:24;;;;;;;2.30;1.50;;;9.10;99.90;;;;;;6278117;22;20179;-86
2023/01/07 04:42:49;;;;;;;1.20;1.10;;;9.10;99.90;;;;;;6249678;22;20836;-88
2023/01/07 04:45:15;;;;;;;1.70;1.33;;;9.00;99.90;;;;;;6249609;22;20385;-87
2023/01/07 04:47:40;;;;;;;2.10;1.90;;;9.00;99.90;;;;;;6277060;22;20210;-86
2023/01/07 04:50:06;;;;;;;4.10;1.13;;;8.90;99.90;;;;;;6249799;22;20215;-86
2023/01/07 04:52:32;;;;;;;2.07;1.10;;;8.90;99.90;;;;;;6249969;22;20198;-87
2023/01/07 04:54:58;;;;;;;4.40;1.80;;;8.90;99.90;;;;;;6249756;22;20919;-87
2023/01/07 04:57:23;;;;;;;3.43;1.53;;;8.90;99.90;;;;;;6249761;22;20314;-86
2023/01/07 04:59:49;;;;;;;2.40;2.17;;;9.00;99.90;;;;;;6249569;22;20818;-86
2023/01/07 05:02:14;;;;;;;3.10;1.73;;;9.10;99.90;;;;;;6261401;22;20231;-87
2023/01/07 05:04:40;;;;;;;1.50;1.40;;;9.10;99.90;;;;;;6251494;22;20152;-85
2023/01/07 05:07:05;;;;;;;1.60;1.40;;;9.10;99.90;;;;;;6246103;22;20158;-86
2023/01/07 05:09:31;;;;;;;1.43;1.33;;;9.10;99.90;;;;;;6276061;22;20144;-86
2023/01/07 05:11:56;;;;;;;1.60;1.30;;;9.20;99.90;;;;;;6276700;22;20159;-87
2023/01/07 05:14:22;;;;;;;1.43;1.20;;;9.30;99.90;;;;;;6277510;22;20168;-87
2023/01/07 05:16:47;;;;;;;3.87;1.10;;;9.30;99.90;;;;;;6248018;22;20152;-87
2023/01/07 05:19:13;;;;;;;2.70;1.10;;;9.30;99.90;;;;;;6250841;22;20198;-87
2023/01/07 05:21:38;;;;;;;3.13;1.60;;;9.30;99.90;;;;;;6255704;22;20206;-88
2023/01/07 05:24:04;;;;;;;0.83;0.80;;;9.20;99.90;;;;;;6277937;22;20150;-86
2023/01/07 05:26:29;;;;;;;4.17;1.87;;;9.10;99.90;;;;;;6251973;22;20152;-86
2023/01/07 05:28:55;;;;;;;1.90;1.40;;;9.00;99.90;;;;;;6279017;22;20502;-86
2023/01/07 05:31:20;;;;;;;1.23;1.10;;;9.00;99.90;;;;;;6287046;22;20182;-87
2023/01/07 05:33:46;;;;;;;1.07;1.00;;;9.00;99.90;;;;;;6255208;22;20509;-86
2023/01/07 05:36:11;;;;;;;1.23;1.13;;;9.10;99.90;;;;;;6250636;22;20152;-88
2023/01/07 05:38:37;;;;;;;1.10;1.00;;;9.10;99.90;;;;;;6250905;22;20156;-87
2023/01/07 05:41:03;;;;;;;1.10;1.00;;;9.10;99.90;;;;;;6250169;22;20912;-86
2023/01/07 05:43:29;;;;;;;1.92;1.20;;;9.10;99.90;;;;;;6250176;22;20511;-88
2023/01/07 05:45:54;;;;;;;1.17;0.93;;;9.10;99.90;;;;;;6249406;22;20179;-88
2023/01/07 05:48:20;;;;;;;2.00;1.13;;;9.10;99.90;;;;;;6250010;22;20167;-86
2023/01/07 05:50:46;;;;;;;1.20;0.80;;;9.10;99.90;;;;;;6249162;22;20183;-87
2023/01/07 05:53:12;;;;;;;1.57;1.07;;;9.00;99.90;;;;;;6277541;22;20381;-88
2023/01/07 05:55:38;;;;;;;1.73;1.10;;;9.00;99.90;;;;;;6249811;22;20155;-86
2023/01/07 05:58:04;;;;;;;1.30;1.10;;;9.00;99.90;;;;;;6250127;22;20383;-84
2023/01/07 06:00:30;;;;;;;1.60;1.10;;;9.00;99.90;;;;;;6248812;22;20194;-88
2023/01/07 06:02:55;;;;;;;1.10;1.00;;;9.10;99.90;;;;;;6248649;22;20148;-86
2023/01/07 06:05:21;;;;;;;1.53;1.07;;;9.00;99.90;;;;;;6275915;22;20158;-87
2023/01/07 06:07:47;;;;;;;1.83;1.30;;;8.90;99.90;;;;;;6249141;22;20159;-86
2023/01/07 06:10:13;;;;;;;3.90;3.47;;;9.00;99.90;;;;;;6248759;22;20172;-85
2023/01/07 06:12:38;;;;;;;2.10;1.90;;;9.00;99.90;;;;;;6298898;22;20147;-86
2023/01/07 06:15:06;;;;;;;1.40;1.27;;;9.00;99.90;;;;;;6298558;22;20367;-85
2023/01/07 06:17:32;;;;;;;2.88;1.83;;;9.00;99.90;;;;;;6292200;22;20144;-85
2023/01/07 06:19:57;;;;;;;14.53;7.47;;;9.00;99.90;;;;;;6252749;22;20271;-86
2023/01/07 06:22:23;;;;;;;14.60;9.20;;;9.00;99.90;;;;;;6277024;22;20378;-83
2023/01/07 06:24:48;;;;;;;26.10;13.00;;;9.10;99.90;;;;;;6250160;22;20255;-87
2023/01/07 06:27:14;;;;;;;2.57;1.87;;;9.10;99.90;;;;;;6276426;22;20148;-85
2023/01/07 06:29:39;;;;;;;48.73;26.20;;;9.10;99.90;;;;;;6250279;22;20467;-86
2023/01/07 06:32:05;;;;;;;24.60;14.33;;;9.00;99.90;;;;;;6277987;22;20144;-88
2023/01/07 06:34:30;;;;;;;2.73;1.73;;;9.00;99.90;;;;;;6247878;22;20152;-88
2023/01/07 06:36:56;;;;;;;1.37;1.07;;;8.90;99.90;;;;;;6274734;22;20132;-86
2023/01/07 06:39:22;;;;;;;12.87;7.97;;;8.90;99.90;;;;;;6245799;22;20860;-86
2023/01/07 06:41:47;;;;;;;4.73;3.37;;;8.90;99.90;;;;;;6247002;22;20266;-83
2023/01/07 06:44:13;;;;;;;12.53;8.17;;;8.80;99.90;;;;;;6274051;22;20230;-86
2023/01/07 06:46:38;;;;;;;14.77;7.50;;;8.90;99.90;;;;;;6258613;22;20151;-85
2023/01/07 06:49:04;;;;;;;2.50;1.80;;;8.90;99.90;;;;;;6253133;22;20159;-86
2023/01/07 06:51:29;;;;;;;3.00;1.80;;;9.00;99.90;;;;;;6251676;22;20172;-86
2023/01/07 06:53:55;;;;;;;1.60;1.30;;;8.90;99.90;;;;;;6257370;22;20656;-87
2023/01/07 06:56:20;;;;;;;1.57;1.33;;;8.90;99.90;;;;;;6287857;22;20136;-85
2023/01/07 06:58:46;;;;;;;1.37;1.27;;;9.00;99.90;;;;;;6278986;22;20144;-86
2023/01/07 07:01:11;;;;;;;2.00;0.90;;;9.00;99.90;;;;;;6251344;22;20188;-85
2023/01/07 07:03:37;;;;;;;1.27;0.90;;;8.90;99.90;;;;;;6277313;22;20140;-87
2023/01/07 07:06:03;;;;;;;1.20;0.90;;;8.90;99.90;;;;;;6276976;22;20170;-86
2023/01/07 07:08:29;;;;;;;1.40;1.30;;;8.90;99.90;;;;;;6250606;22;20156;-86
2023/01/07 07:10:54;;;;;;;1.50;1.00;;;8.90;99.90;;;;;;6250678;22;20186;-85
2023/01/07 07:13:20;;;;;;;1.70;1.10;;;8.90;99.90;;;;;;6277449;22;20148;-86
2023/01/07 07:15:46;;;;;;;1.20;1.10;;;8.90;99.90;;;;;;6275861;22;20152;-85
2023/01/07 07:18:11;;;;;;;11.20;6.30;;;8.90;99.90;;;;;;6250393;22;20171;-86
2023/01/07 07:20:37;;;;;;;32.57;14.63;;;9.00;99.90;;;;;;6249486;22;20426;-84
2023/01/07 07:23:02;;;;;;;3.43;2.20;;;9.00;99.90;;;;;;6282148;22;20144;-86
2023/01/07 07:25:28;;;;;;;34.03;15.13;;;8.90;99.90;;;;;;6272420;22;20154;-85
2023/01/07 07:27:54;;;;;;;5.90;2.60;;;8.90;99.90;;;;;;6275931;22;20525;-87
2023/01/07 07:30:19;;;;;;;1.33;0.90;;;8.90;99.90;;;;;;6264058;22;20416;-86
2023/01/07 07:32:45;;;;;;;2.57;2.27;;;8.90;99.90;;;;;;6248048;22;20753;-87
2023/01/07 07:35:11;;;;;;;5.23;4.20;;;8.90;99.90;;;;;;6275384;22;20148;-84
2023/01/07 07:37:37;;;;;;;3.92;3.38;;;8.80;99.90;;;;;;6261403;22;20139;-87
2023/01/07 07:40:05;;;;;;;4.75;2.50;;;8.80;99.90;;;;;;6259150;22;20203;-86
2023/01/07 07:42:30;;;;;;;3.42;1.85;;;8.90;99.90;;;;;;6253544;22;20167;-86
2023/01/07 07:44:56;;;;;;;3.77;3.10;;;8.90;99.90;;;;;;6255357;22;20609;-86
2023/01/07 07:47:21;;;;;;;2.70;1.57;;;8.90;99.90;;;;;;6281418;22;20140;-86
2023/01/07 07:49:47;;;;;;;2.57;1.30;;;8.90;99.90;;;;;;6253384;22;20223;-85
2023/01/07 07:52:13;;;;;;;3.33;2.20;;;8.80;99.90;;;;;;6251446;22;20163;-86
2023/01/07 07:54:38;;;;;;;2.60;1.53;;;8.80;99.90;;;;;;6278486;22;20286;-86
2023/01/07 07:57:04;;;;;;;2.77;1.80;;;8.80;99.90;;;;;;6252750;22;20838;-86
2023/01/07 07:59:30;;;;;;;4.57;3.30;;;8.80;99.90;;;;;;6279381;22;20159;-86
2023/01/07 08:01:55;;;;;;;1.80;1.70;;;8.80;99.90;;;;;;6252410;22;20226;-86
2023/01/07 08:04:21;;;;;;;1.60;1.37;;;8.90;99.90;;;;;;6266322;22;20397;-85
2023/01/07 08:06:46;;;;;;;2.70;1.80;;;8.90;99.90;;;;;;6252013;22;20386;-85
2023/01/07 08:09:12;;;;;;;2.97;2.10;;;8.90;99.90;;;;;;6279575;22;20140;-86
2023/01/07 08:11:37;;;;;;;2.23;2.03;;;8.80;99.90;;;;;;6251695;22;20172;-86
2023/01/07 08:14:03;;;;;;;5.10;3.03;;;8.80;99.90;;;;;;6276984;22;20144;-87
2023/01/07 08:16:28;;;;;;;4.23;2.30;;;8.80;99.90;;;;;;6278558;22;20155;-85
2023/01/07 08:18:54;;;;;;;2.30;2.10;;;8.90;99.90;;;;;;6253747;22;20152;-85
2023/01/07 08:21:19;;;;;;;4.03;2.70;;;8.90;99.90;;;;;;6256778;22;20251;-85
2023/01/07 08:23:45;;;;;;;16.20;7.93;;;9.00;99.90;;;;;;6275147;22;20168;-88
2023/01/07 08:26:11;;;;;;;5.07;2.70;;;9.00;99.90;;;;;;6261953;22;20159;-84
2023/01/07 08:28:37;;;;;;;3.73;2.97;;;9.00;99.90;;;;;;6252252;22;20156;-86
2023/01/07 08:31:06;;;;;;;2.45;1.83;;;9.10;99.90;;;;;;6249024;22;20511;-86
2023/01/07 08:33:36;;;;;;;2.88;2.20;;;9.10;99.90;;;;;;6249580;22;20184;-86
2023/01/07 08:36:02;;;;;;;2.40;1.75;;;9.20;99.90;;;;;;6275319;22;20128;-84
2023/01/07 08:38:30;;;;;;;2.10;1.60;;;9.30;99.90;;;;;;6248889;22;20174;-86
2023/01/07 08:40:56;;;;;;;10.82;5.13;;;9.30;99.90;;;;;;6276623;22;20190;-86
2023/01/07 08:43:23;;;;;;;17.53;8.43;;;9.30;99.90;;;;;;6283270;22;20163;-87
2023/01/07 08:45:49;;;;;;;4.13;2.63;;;9.30;99.90;;;;;;6259296;22;20470;-87
2023/01/07 08:48:14;;;;;;;3.17;2.30;;;9.30;99.90;;;;;;6248938;22;20176;-84
2023/01/07 08:50:40;;;;;;;2.60;2.10;;;9.40;99.90;;;;;;6249395;22;20379;-85
2023/01/07 08:53:05;;;;;;;2.90;2.70;;;9.20;99.90;;;;;;6249549;22;20233;-85
2023/01/07 08:55:31;;;;;;;2.07;1.70;;;9.20;99.90;;;;;;6254364;22;20159;-84
2023/01/07 08:57:56;;;;;;;1.60;1.33;;;9.20;99.90;;;;;;6283707;22;20727;-81
2023/01/07 09:00:23;;;;;;;1.90;1.50;;;9.20;99.90;;;;;;6254363;22;20198;-83
2023/01/07 09:02:48;;;;;;;1.40;1.30;;;9.10;99.90;;;;;;6255062;22;20158;-83
2023/01/07 09:05:14;;;;;;;1.53;1.37;;;9.20;99.90;;;;;;6282642;22;20512;-86
2023/01/07 09:07:40;;;;;;;2.27;1.67;;;9.20;99.90;;;;;;6255472;22;20185;-85
2023/01/07 09:10:08;;;;;;;1.47;1.37;;;9.20;99.90;;;;;;6282414;22;20439;-83
2023/01/07 09:12:34;;;;;;;1.25;1.15;;;9.30;99.90;;;;;;6254543;22;20159;-84
2023/01/07 09:14:59;;;;;;;1.50;1.40;;;9.30;99.90;;;;;;6252071;22;20576;-84
2023/01/07 09:17:25;;;;;;;1.30;1.13;;;9.30;99.90;;;;;;6280172;22;20144;-83
2023/01/07 09:19:51;;;;;;;1.20;1.10;;;9.30;99.90;;;;;;6280361;22;20198;-87
2023/01/07 09:22:16;;;;;;;5.80;1.70;;;9.40;99.90;;;;;;6260101;22;20159;-87
2023/01/07 09:24:41;;;;;;;1.53;1.43;;;9.30;99.90;;;;;;6285718;22;20144;-84
2023/01/07 09:27:07;;;;;;;1.83;1.20;;;9.40;99.90;;;;;;6257845;22;20166;-84
2023/01/07 09:29:33;;;;;;;0.80;0.80;;;9.30;99.90;;;;;;6257386;22;20151;-83
2023/01/07 09:31:58;;;;;;;2.00;1.30;;;9.40;99.90;;;;;;6255740;22;20396;-83
2023/01/07 09:34:24;;;;;;;1.40;1.03;;;9.50;99.90;;;;;;6282755;22;20167;-83
2023/01/07 09:36:49;;;;;;;1.53;1.10;;;9.50;99.90;;;;;;6283820;22;20214;-82
2023/01/07 09:39:15;;;;;;;0.67;0.67;;;9.40;99.90;;;;;;6284279;22;20311;-84
2023/01/07 09:42:02;;;;;;;0.80;0.80;;;9.50;99.90;;;;;;6286234;22;20194;-83
2023/01/07 09:44:43;;;;;;;2.17;1.83;;;9.70;99.90;;;;;;6283585;22;20142;-83
2023/01/07 09:47:11;;;;;;;1.67;1.23;;;9.70;99.90;;;;;;6256569;22;20148;-82
2023/01/07 09:49:38;;;;;;;1.80;1.15;;;9.80;99.90;;;;;;6284143;22;20141;-82
2023/01/07 09:52:12;;;;;;;1.38;1.02;;;9.90;99.90;;;;;;6267626;22;20163;-84
2023/01/07 09:54:38;;;;;;;1.55;0.90;;;10.10;99.90;;;;;;6301491;22;20135;-84
2023/01/07 09:57:04;;;;;;;1.42;1.10;;;10.00;99.90;;;;;;6296709;22;20144;-82
2023/01/07 09:59:30;;;;;;;1.40;0.90;;;10.10;99.90;;;;;;6264404;22;20810;-85
2023/01/07 10:02:04;;;;;;;1.07;0.97;;;10.30;99.90;;;;;;6255630;22;20175;-84
2023/01/07 10:04:40;;;;;;;2.30;0.57;;;10.40;99.90;;;;;;6282114;22;20135;-85
2023/01/07 10:07:17;;;;;;;1.58;0.75;;;10.40;99.90;;;;;;6256495;22;20142;-82
2023/01/07 10:09:49;;;;;;;5.07;2.97;;;10.30;99.90;;;;;;6282472;22;20274;-86
2023/01/07 10:12:32;;;;;;;10.80;5.40;;;10.20;99.90;;;;;;6283618;22;20792;-85
2023/01/07 10:15:24;;;;;;;4.25;2.72;;;10.10;99.90;;;;;;6281953;22;20226;-83
2023/01/07 10:18:30;;;;;;;1.90;1.35;;;10.10;99.90;;;;;;6282174;22;20167;-85
2023/01/07 10:21:21;;;;;;;1.65;1.30;;;10.20;99.90;;;;;;6254213;22;20203;-84
2023/01/07 10:23:58;;;;;;;2.88;1.50;;;10.30;99.90;;;;;;6254081;22;20147;-83
2023/01/07 10:26:35;;;;;;;2.08;1.45;;;10.40;99.90;;;;;;6252238;22;20136;-84
2023/01/07 10:29:34;;;;;;;1.73;1.02;;;10.40;99.90;;;;;;6281243;22;20132;-82
2023/01/07 10:32:10;;;;;;;3.25;1.42;;;10.60;99.90;;;;;;6197219;22;20209;-83
2023/01/07 10:34:43;;;;;;;2.63;1.60;;;10.30;99.90;;;;;;6280432;22;20132;-84
2023/01/07 10:37:28;;;;;;;1.90;1.42;;;10.50;99.90;;;;;;6281070;22;20140;-82
2023/01/07 10:40:16;;;;;;;3.17;1.70;;;10.40;99.90;;;;;;6279825;22;20156;-84
2023/01/07 10:43:03;;;;;;;1.88;1.05;;;10.40;99.90;;;;;;6283969;22;20207;-84
2023/01/07 10:45:39;;;;;;;2.53;2.10;;;10.50;99.90;;;;;;6280633;22;20131;-85
2023/01/07 10:48:38;;;;;;;1.65;1.30;;;10.50;99.90;;;;;;6281684;22;20151;-84
2023/01/07 10:51:48;;;;;;;1.70;1.60;;;11.00;99.90;;;;;;6255994;22;20176;-83
2023/01/07 10:54:32;;;;;;;3.17;2.50;;;11.00;99.90;;;;;;6209199;22;20236;-81
2023/01/07 10:57:05;;;;;;;2.45;1.92;;;10.60;99.90;;;;;;6279637;22;20210;-85
2023/01/07 10:59:31;;;;;;;1.35;1.25;;;10.70;99.90;;;;;;6254525;22;20140;-83
2023/01/07 11:01:57;;;;;;;2.57;2.20;;;10.60;99.90;;;;;;6278626;22;20170;-84
2023/01/07 11:04:24;;;;;;;3.20;1.35;;;10.70;99.90;;;;;;6251681;22;20720;-85
2023/01/07 11:06:57;;;;;;;2.58;1.90;;;11.00;99.90;;;;;;6255642;22;20156;-82
2023/01/07 11:09:43;;;;;;;2.80;2.00;;;10.70;99.90;;;;;;6254468;22;20144;-82
2023/01/07 11:12:32;;;;;;;2.47;2.03;;;10.80;99.90;;;;;;6253606;22;20245;-84
2023/01/07 11:15:02;;;;;;;3.55;2.70;;;10.90;99.90;;;;;;6291155;22;20113;-83
2023/01/07 11:17:44;;;;;;;3.58;2.45;;;10.70;99.90;;;;;;6252136;22;20154;-85
2023/01/07 11:20:11;;;;;;;3.40;2.88;;;11.00;99.90;;;;;;6279547;22;20179;-82
2023/01/07 11:22:39;;;;;;;4.00;2.83;;;11.20;99.90;;;;;;6296574;22;20132;-81
2023/01/07 11:25:27;;;;;;;3.28;2.85;;;11.50;99.90;;;;;;6298848;22;20156;-84
2023/01/07 11:27:57;;;;;;;4.55;2.70;;;11.70;99.90;;;;;;6285596;22;20165;-86
2023/01/07 11:30:28;;;;;;;4.82;2.85;;;11.80;99.90;;;;;;6284961;22;20152;-82
2023/01/07 11:32:58;;;;;;;6.30;3.88;;;12.30;99.90;;;;;;6266010;22;20152;-84
2023/01/07 11:35:27;;;;;;;3.97;3.42;;;12.80;99.90;;;;;;6264551;22;20144;-83
2023/01/07 11:37:52;;;;;;;5.43;3.97;;;13.20;99.90;;;;;;6292902;22;20144;-83
2023/01/07 11:40:27;;;;;;;3.97;3.40;;;13.40;99.90;;;;;;6287640;22;20432;-84
2023/01/07 11:43:00;;;;;;;4.32;2.65;;;13.10;99.90;;;;;;6262194;22;20163;-85
2023/01/07 11:45:47;;;;;;;5.55;4.00;;;12.60;99.90;;;;;;6264336;22;20554;-82
2023/01/07 11:48:19;;;;;;;4.60;3.38;;;12.00;99.90;;;;;;6288753;22;20132;-85
2023/01/07 11:50:53;;;;;;;5.03;3.00;;;12.10;99.90;;;;;;6286385;22;20178;-83
2023/01/07 11:53:19;;;;;;;5.78;2.80;;;12.30;99.90;;;;;;6260099;22;20151;-84
2023/01/07 11:56:00;;;;;;;4.00;2.83;;;12.50;99.90;;;;;;6257996;22;20162;-84
2023/01/07 11:58:28;;;;;;;4.30;2.50;;;12.70;99.90;;;;;;6286288;22;20159;-84
2023/01/07 12:01:15;;;;;;;3.35;2.85;;;12.80;99.90;;;;;;6257462;22;20430;-84
2023/01/07 12:04:09;;;;;;;5.30;3.63;;;12.90;99.90;;;;;;6283870;22;20128;-84
2023/01/07 12:06:39;;;;;;;5.13;3.10;;;12.60;99.90;;;;;;6260150;22;20124;-85
2023/01/07 12:09:38;;;;;;;5.18;3.33;;;12.40;99.90;;;;;;6268254;22;20382;-83
2023/01/07 12:12:37;;;;;;;3.43;3.10;;;12.20;99.90;;;;;;6256836;22;20183;-85
2023/01/07 12:15:05;;;;;;;14.73;8.32;;;12.30;99.90;;;;;;6281867;22;20456;-83
2023/01/07 12:17:33;;;;;;;4.80;4.10;;;12.30;99.90;;;;;;6256548;22;20159;-84
2023/01/07 12:20:32;;;;;;;3.92;2.55;;;12.10;99.90;;;;;;6253762;22;20179;-86
2023/01/07 12:23:06;;;;;;;4.60;3.13;;;12.10;99.90;;;;;;6254821;22;20155;-85
2023/01/07 12:25:36;;;;;;;5.55;2.20;;;12.20;99.90;;;;;;6256894;22;20205;-83
2023/01/07 12:28:09;;;;;;;3.47;2.70;;;12.40;99.90;;;;;;6293356;22;20128;-83
2023/01/07 12:30:38;;;;;;;4.65;3.78;;;12.60;99.90;;;;;;6257211;22;20608;-84
2023/01/07 12:33:26;;;;;;;5.30;3.13;;;12.50;99.90;;;;;;6286018;22;20152;-84
2023/01/07 12:35:54;;;;;;;2.97;2.50;;;12.40;99.90;;;;;;6281993;22;20128;-83
2023/01/07 12:38:26;;;;;;;3.13;2.83;;;12.20;99.90;;;;;;6285773;22;20152;-84
2023/01/07 12:41:00;;;;;;;5.30;2.85;;;12.50;99.90;;;;;;6256292;22;20199;-85
2023/01/07 12:43:40;;;;;;;3.47;2.37;;;12.90;99.90;;;;;;6281618;22;20159;-84
2023/01/07 12:46:11;;;;;;;4.95;2.95;;;12.80;99.90;;;;;;6263563;22;20374;-84
2023/01/07 12:49:06;;;;;;;4.57;4.05;;;12.50;99.90;;;;;;6271068;22;20140;-84
2023/01/07 12:51:42;;;;;;;3.42;2.28;;;12.50;99.90;;;;;;6289280;22;20164;-85
2023/01/07 12:54:21;;;;;;;3.33;2.83;;;12.40;99.90;;;;;;6268422;22;20148;-83
2023/01/07 12:57:02;;;;;;;3.50;3.00;;;12.40;99.90;;;;;;6293836;22;20946;-82
2023/01/07 12:59:35;;;;;;;4.72;3.22;;;12.50;99.90;;;;;;6291753;22;20159;-85
2023/01/07 13:02:46;;;;;;;3.97;2.90;;;12.40;99.90;;;;;;6260198;22;20175;-84
2023/01/07 13:05:29;;;;;;;4.30;2.72;;;12.50;99.90;;;;;;6286015;22;20128;-83
2023/01/07 13:08:17;;;;;;;3.33;2.45;;;12.60;99.90;;;;;;6285584;22;20141;-83
2023/01/07 13:10:50;;;;;;;5.90;3.57;;;12.70;99.90;;;;;;6256620;22;20179;-85
2023/01/07 13:13:32;;;;;;;2.97;2.38;;;12.90;99.90;;;;;;6287242;22;20354;-82
2023/01/07 13:15:58;;;;;;;3.63;2.80;;;13.00;99.90;;;;;;6281345;22;20135;-83